createdAt,value
2022-08-03T00:00:48.936Z,10.25
2022-08-03T00:03:18.915Z,9.75
2022-08-03T00:06:03.985Z,9.77
2022-08-03T00:08:40.213Z,8.40
2022-08-03T00:11:10.509Z,7.20
2022-08-03T00:13:40.688Z,11.05
2022-08-03T00:16:10.938Z,10.63
2022-08-03T00:18:41.136Z,8.82
2022-08-03T00:21:11.515Z,9.55
2022-08-03T00:23:52.248Z,8.70
2022-08-03T00:26:23.294Z,11.05
2022-08-03T00:28:53.563Z,9.63
2022-08-03T00:31:44.999Z,11.23
2022-08-03T00:34:13.462Z,8.95
2022-08-03T00:36:43.562Z,9.68
2022-08-03T00:39:16.096Z,8.23
2022-08-03T00:41:46.142Z,11.00
2022-08-03T00:44:16.086Z,10.73
2022-08-03T00:46:46.101Z,8.32
2022-08-03T00:49:16.138Z,8.00
2022-08-03T00:51:46.653Z,7.63
2022-08-03T00:54:19.331Z,7.35
2022-08-03T00:57:00.092Z,9.77
2022-08-03T00:59:30.772Z,8.35
2022-08-03T01:02:01.546Z,8.25
2022-08-03T01:04:31.626Z,8.48
2022-08-03T01:07:10.710Z,11.88
2022-08-03T01:09:49.578Z,8.88
2022-08-03T01:12:28.152Z,9.68
2022-08-03T01:15:05.860Z,11.45
2022-08-03T01:17:41.595Z,8.68
2022-08-03T01:20:13.911Z,9.00
2022-08-03T01:23:09.008Z,9.23
2022-08-03T01:26:12.541Z,10.35
2022-08-03T01:29:00.036Z,9.32
2022-08-03T01:32:58.075Z,9.15
2022-08-03T01:34:35.266Z,8.95
2022-08-03T01:37:08.996Z,9.80
2022-08-03T01:39:40.838Z,9.25
2022-08-03T01:42:13.789Z,14.25
2022-08-03T01:44:48.953Z,9.20
2022-08-03T01:47:24.018Z,10.05
2022-08-03T01:49:56.597Z,9.70
2022-08-03T01:52:27.991Z,8.10
2022-08-03T01:54:58.569Z,8.32
2022-08-03T01:57:32.165Z,11.75
2022-08-03T02:00:03.752Z,11.52
2022-08-03T02:05:17.693Z,15.85
2022-08-03T02:07:49.976Z,10.25
2022-08-03T02:10:34.559Z,13.48
2022-08-03T02:13:08.298Z,21.63
2022-08-03T02:15:39.945Z,16.10
2022-08-03T02:18:13.946Z,22.38
2022-08-03T02:20:46.108Z,13.45
2022-08-03T02:23:18.604Z,11.20
2022-08-03T02:25:51.359Z,14.57
2022-08-03T02:28:23.858Z,15.23
2022-08-03T02:30:57.844Z,15.35
2022-08-03T02:33:35.841Z,17.25
2022-08-03T02:36:07.835Z,15.02
2022-08-03T02:38:42.005Z,14.27
2022-08-03T02:41:19.610Z,13.00
2022-08-03T02:44:05.427Z,13.85
2022-08-03T02:46:40.534Z,11.50
2022-08-03T02:49:40.530Z,11.75
2022-08-03T02:52:06.955Z,13.23
2022-08-03T02:54:44.495Z,11.68
2022-08-03T02:57:16.668Z,14.13
2022-08-03T02:59:47.721Z,12.73
2022-08-03T03:02:19.703Z,10.55
2022-08-03T03:05:50.946Z,10.25
2022-08-03T03:07:51.382Z,9.73
2022-08-03T03:10:23.558Z,12.30
2022-08-03T03:12:55.455Z,9.50
2022-08-03T03:15:26.522Z,13.65
2022-08-03T03:17:57.363Z,13.02
2022-08-03T03:20:32.926Z,13.93
2022-08-03T03:23:04.516Z,11.75
2022-08-03T03:25:36.129Z,14.30
2022-08-03T03:28:06.824Z,10.40
2022-08-03T03:30:37.156Z,9.25
2022-08-03T03:33:07.628Z,12.65
2022-08-03T03:35:41.399Z,14.02
2022-08-03T03:38:12.386Z,13.43
2022-08-03T03:40:42.698Z,12.70
2022-08-03T03:43:14.040Z,9.27
2022-08-03T03:45:44.849Z,9.48
2022-08-03T03:48:14.953Z,12.32
2022-08-03T03:50:48.210Z,9.10
2022-08-03T03:53:18.211Z,9.95
2022-08-03T03:56:01.509Z,9.43
2022-08-03T03:58:33.962Z,12.88
2022-08-03T04:01:04.291Z,8.55
2022-08-03T04:03:34.279Z,8.88
2022-08-03T04:06:19.408Z,8.70
2022-08-03T04:09:01.841Z,10.90
2022-08-03T04:11:36.734Z,13.90
2022-08-03T04:14:10.988Z,11.80
2022-08-03T04:16:44.343Z,9.45
2022-08-03T04:19:22.971Z,9.18
2022-08-03T04:22:00.558Z,9.40
2022-08-03T04:24:36.737Z,13.95
2022-08-03T04:27:10.165Z,9.82
2022-08-03T04:29:48.512Z,10.85
2022-08-03T04:32:20.410Z,9.23
2022-08-03T04:34:50.610Z,9.25
2022-08-03T04:37:33.092Z,8.75
2022-08-03T04:40:05.827Z,9.93
2022-08-03T04:42:37.310Z,9.30
2022-08-03T04:45:09.407Z,8.55
2022-08-03T04:47:40.911Z,9.60
2022-08-03T04:50:15.029Z,8.25
2022-08-03T04:52:49.687Z,9.13
2022-08-03T04:55:29.303Z,15.02
2022-08-03T04:57:59.666Z,12.30
2022-08-03T05:00:30.556Z,10.25
2022-08-03T05:03:00.478Z,11.32
2022-08-03T05:05:50.137Z,10.05
2022-08-03T05:08:28.018Z,10.90
2022-08-03T05:10:59.319Z,9.70
2022-08-03T05:13:29.657Z,11.85
2022-08-03T05:18:43.713Z,8.63
2022-08-03T05:21:16.335Z,8.57
2022-08-03T05:23:48.985Z,9.48
2022-08-03T05:26:19.013Z,9.07
2022-08-03T05:28:50.704Z,9.40
2022-08-03T05:31:21.374Z,9.18
2022-08-03T05:33:51.693Z,7.93
2022-08-03T05:36:21.671Z,8.43
2022-08-03T05:38:54.212Z,8.77
2022-08-03T05:41:37.259Z,8.02
2022-08-03T05:44:07.907Z,11.82
2022-08-03T05:46:38.101Z,10.05
2022-08-03T05:49:08.117Z,7.80
2022-08-03T05:51:38.168Z,9.65
2022-08-03T05:54:10.694Z,9.50
2022-08-03T05:56:41.130Z,8.90
2022-08-03T05:59:37.055Z,8.25
2022-08-03T06:02:01.891Z,7.07
2022-08-03T06:04:31.840Z,9.32
2022-08-03T06:07:01.782Z,7.63
2022-08-03T06:10:34.915Z,8.25
2022-08-03T06:12:24.524Z,8.40
2022-08-03T06:14:54.461Z,7.28
2022-08-03T06:17:24.412Z,8.45
2022-08-03T06:19:56.843Z,6.10
2022-08-03T06:22:26.876Z,6.82
2022-08-03T06:25:04.115Z,6.93
2022-08-03T06:27:37.292Z,7.57
2022-08-03T06:30:08.757Z,7.15
2022-08-03T06:32:40.662Z,7.75
2022-08-03T06:35:12.496Z,8.30
2022-08-03T06:37:47.182Z,6.90
2022-08-03T06:40:21.751Z,7.60
2022-08-03T06:42:54.480Z,6.80
2022-08-03T06:45:24.548Z,10.98
2022-08-03T06:48:03.763Z,5.47
2022-08-03T06:50:33.842Z,8.70
2022-08-03T06:53:04.402Z,7.65
2022-08-03T06:55:42.274Z,9.98
2022-08-03T06:58:12.566Z,6.80
2022-08-03T07:00:42.530Z,7.78
2022-08-03T07:03:12.522Z,5.82
2022-08-03T07:05:42.856Z,8.32
2022-08-03T07:08:12.916Z,6.10
2022-08-03T07:10:45.530Z,6.00
2022-08-03T07:13:15.662Z,7.90
2022-08-03T07:15:55.703Z,9.57
2022-08-03T07:18:29.456Z,6.55
2022-08-03T07:21:00.021Z,5.95
2022-08-03T07:23:29.991Z,7.60
2022-08-03T07:26:02.577Z,6.90
2022-08-03T07:28:32.835Z,5.70
2022-08-03T07:31:03.002Z,4.97
2022-08-03T07:33:32.986Z,3.72
2022-08-03T07:36:02.923Z,7.10
2022-08-03T07:38:32.907Z,5.68
2022-08-03T07:41:05.686Z,5.25
2022-08-03T07:43:35.731Z,5.72
2022-08-03T07:46:05.704Z,6.30
2022-08-03T07:48:35.684Z,4.57
2022-08-03T07:51:06.112Z,4.32
2022-08-03T07:53:37.826Z,5.22
2022-08-03T07:56:20.007Z,4.53
2022-08-03T07:58:49.958Z,6.15
2022-08-03T08:01:20.027Z,3.95
2022-08-03T08:03:53.441Z,3.20
2022-08-03T08:06:24.830Z,4.03
2022-08-03T08:08:59.682Z,5.18
2022-08-03T08:11:34.804Z,5.97
2022-08-03T08:14:08.164Z,6.38
2022-08-03T08:16:39.708Z,4.60
2022-08-03T08:19:09.675Z,4.53
2022-08-03T08:21:53.957Z,5.80
2022-08-03T08:24:34.075Z,2.83
2022-08-03T08:27:08.882Z,3.67
2022-08-03T08:29:38.765Z,3.33
2022-08-03T08:32:23.111Z,6.05
2022-08-03T08:34:53.374Z,3.63
2022-08-03T08:37:23.336Z,3.08
2022-08-03T08:39:53.283Z,4.10
2022-08-03T08:42:25.941Z,4.15
2022-08-03T08:44:56.418Z,3.72
2022-08-03T08:47:28.640Z,11.25
2022-08-03T08:50:10.075Z,4.45
2022-08-03T08:52:43.987Z,3.17
2022-08-03T08:55:17.337Z,4.88
2022-08-03T08:57:52.536Z,4.72
2022-08-03T09:00:22.589Z,4.43
2022-08-03T09:02:53.134Z,4.68
2022-08-03T09:05:41.359Z,5.05
2022-08-03T09:08:13.652Z,3.47
2022-08-03T09:10:43.649Z,3.50
2022-08-03T09:13:16.441Z,4.20
2022-08-03T09:15:51.293Z,2.80
2022-08-03T09:18:33.441Z,2.90
2022-08-03T09:21:33.579Z,3.40
2022-08-03T09:24:07.256Z,3.10
2022-08-03T09:26:41.188Z,2.88
2022-08-03T09:29:15.427Z,3.78
2022-08-03T09:31:47.951Z,4.28
2022-08-03T09:34:20.494Z,4.15
2022-08-03T09:36:54.426Z,4.10
2022-08-03T09:39:41.541Z,4.30
2022-08-03T09:42:14.497Z,6.65
2022-08-03T09:44:49.698Z,5.20
2022-08-03T09:47:30.807Z,3.78
2022-08-03T09:50:02.437Z,3.25
2022-08-03T09:52:49.356Z,2.45
2022-08-03T09:56:35.081Z,2.75
2022-08-03T09:58:14.505Z,3.45
2022-08-03T10:01:04.096Z,3.33
2022-08-03T10:04:03.403Z,3.53
2022-08-03T10:06:28.941Z,3.08
2022-08-03T10:09:09.496Z,3.05
2022-08-03T10:11:41.970Z,3.78
2022-08-03T10:14:19.076Z,3.67
2022-08-03T10:16:52.775Z,4.00
2022-08-03T10:19:22.776Z,2.33
2022-08-03T10:21:58.031Z,2.60
2022-08-03T10:24:29.969Z,1.90
2022-08-03T10:27:08.648Z,2.38
2022-08-03T10:29:41.703Z,4.55
2022-08-03T10:32:21.050Z,2.92
2022-08-03T10:35:00.282Z,3.53
2022-08-03T10:37:37.368Z,2.53
2022-08-03T10:40:10.090Z,3.20
2022-08-03T10:42:40.514Z,2.92
2022-08-03T10:45:16.590Z,2.55
2022-08-03T10:47:51.045Z,3.42
2022-08-03T10:50:21.812Z,3.30
2022-08-03T10:53:02.069Z,2.78
2022-08-03T10:55:48.181Z,2.70
2022-08-03T10:58:30.685Z,3.50
2022-08-03T11:01:01.055Z,3.35
2022-08-03T11:03:33.847Z,3.88
2022-08-03T11:06:19.858Z,3.88
2022-08-03T11:08:50.537Z,5.57
2022-08-03T11:11:31.384Z,6.57
2022-08-03T11:14:04.681Z,2.88
2022-08-03T11:16:37.960Z,3.17
2022-08-03T11:19:13.382Z,2.30
2022-08-03T11:22:01.144Z,2.90
2022-08-03T11:25:01.402Z,2.85
2022-08-03T11:27:34.147Z,3.40
2022-08-03T11:30:08.176Z,3.85
2022-08-03T11:33:03.417Z,5.80
2022-08-03T11:35:43.887Z,3.20
2022-08-03T11:38:14.962Z,2.53
2022-08-03T11:40:47.599Z,5.80
2022-08-03T11:43:48.223Z,2.88
2022-08-03T11:46:29.798Z,2.25
2022-08-03T11:49:10.906Z,2.55
2022-08-03T11:51:43.566Z,5.78
2022-08-03T11:54:13.588Z,8.52
2022-08-03T11:56:48.760Z,4.10
2022-08-03T11:59:22.234Z,2.58
2022-08-03T12:01:52.831Z,2.92
2022-08-03T12:04:22.868Z,2.65
2022-08-03T12:07:04.740Z,3.85
2022-08-03T12:09:36.356Z,3.17
2022-08-03T12:12:06.997Z,2.45
2022-08-03T12:14:50.963Z,2.20
2022-08-03T12:17:22.379Z,2.15
2022-08-03T12:19:52.746Z,2.78
2022-08-03T12:22:37.461Z,2.92
2022-08-03T12:25:08.134Z,3.15
2022-08-03T12:27:40.338Z,2.92
2022-08-03T12:30:12.297Z,2.75
2022-08-03T12:32:42.266Z,1.73
2022-08-03T12:35:13.246Z,3.38
2022-08-03T12:37:51.335Z,3.35
2022-08-03T12:42:58.689Z,3.53
2022-08-03T12:45:32.128Z,2.78
2022-08-03T12:48:04.029Z,3.72
2022-08-03T12:50:35.654Z,4.10
2022-08-03T12:53:10.075Z,2.10
2022-08-03T12:56:04.335Z,3.20
2022-08-03T12:58:36.560Z,2.47
2022-08-03T13:01:09.720Z,2.88
2022-08-03T13:03:45.754Z,2.83
2022-08-03T13:06:22.157Z,2.22
2022-08-03T13:09:05.588Z,3.00
2022-08-03T13:11:57.807Z,1.70
2022-08-03T13:14:26.061Z,3.42
2022-08-03T13:16:55.966Z,4.32
2022-08-03T13:19:25.912Z,3.75
2022-08-03T13:22:04.403Z,3.03
2022-08-03T13:24:37.566Z,4.03
2022-08-03T13:28:02.664Z,1.92
2022-08-03T13:29:58.271Z,3.22
2022-08-03T13:32:28.299Z,4.57
2022-08-03T13:34:58.219Z,4.53
2022-08-03T13:37:28.309Z,4.65
2022-08-03T13:40:02.754Z,9.32
2022-08-03T13:42:34.911Z,3.30
2022-08-03T13:45:05.575Z,2.17
2022-08-03T13:47:35.516Z,2.25
2022-08-03T13:50:05.507Z,2.05
2022-08-03T13:52:36.676Z,4.55
2022-08-03T13:55:11.006Z,2.00
2022-08-03T13:58:12.000Z,4.25
2022-08-03T14:00:31.144Z,2.30
2022-08-03T14:03:17.387Z,2.42
2022-08-03T14:05:48.371Z,3.67
2022-08-03T14:08:18.421Z,3.65
2022-08-03T14:10:50.911Z,3.95
2022-08-03T14:13:20.851Z,2.53
2022-08-03T14:15:51.978Z,3.17
2022-08-03T14:18:28.384Z,3.03
2022-08-03T14:21:07.030Z,2.00
2022-08-03T14:23:38.571Z,5.45
2022-08-03T14:26:12.224Z,4.75
2022-08-03T14:28:42.113Z,2.05
2022-08-03T14:32:08.934Z,2.95
2022-08-03T14:34:01.869Z,5.40
2022-08-03T14:36:31.769Z,2.45
2022-08-03T14:39:01.851Z,5.07
2022-08-03T14:41:34.487Z,2.25
2022-08-03T14:44:04.397Z,1.80
2022-08-03T14:46:34.703Z,1.95
2022-08-03T14:50:37.851Z,2.63
2022-08-03T14:51:55.373Z,3.80
2022-08-03T14:54:26.055Z,4.28
2022-08-03T14:56:59.050Z,3.88
2022-08-03T14:59:29.172Z,3.88
2022-08-03T15:02:23.745Z,2.17
2022-08-03T15:04:54.458Z,2.45
2022-08-03T15:07:24.477Z,5.45
2022-08-03T15:09:54.430Z,3.72
2022-08-03T15:12:26.986Z,4.70
2022-08-03T15:14:56.911Z,4.10
2022-08-03T15:17:26.905Z,5.18
2022-08-03T15:20:03.404Z,5.05
2022-08-03T15:22:47.018Z,3.17
2022-08-03T15:26:03.923Z,6.57
2022-08-03T15:28:09.673Z,2.65
2022-08-03T15:30:39.757Z,2.67
2022-08-03T15:33:09.902Z,7.57
2022-08-03T15:35:39.835Z,1.55
2022-08-03T15:38:09.918Z,3.55
2022-08-03T15:40:40.014Z,3.05
2022-08-03T15:43:12.579Z,2.22
2022-08-03T15:45:43.080Z,3.13
2022-08-03T15:48:12.985Z,3.85
2022-08-03T15:50:43.929Z,3.17
2022-08-03T15:53:13.883Z,3.55
2022-08-03T15:55:43.938Z,3.15
2022-08-03T15:59:10.002Z,7.15
2022-08-03T16:01:08.109Z,8.55
2022-08-03T16:03:38.563Z,6.20
2022-08-03T16:06:10.477Z,3.70
2022-08-03T16:08:40.407Z,5.05
2022-08-03T16:11:10.444Z,2.10
2022-08-03T16:14:04.792Z,3.35
2022-08-03T16:16:32.947Z,8.43
2022-08-03T16:19:05.570Z,4.25
2022-08-03T16:21:40.316Z,4.65
2022-08-03T16:24:20.001Z,2.70
2022-08-03T16:26:57.950Z,4.97
2022-08-03T16:29:33.137Z,3.17
2022-08-03T16:32:09.384Z,2.60
2022-08-03T16:34:40.337Z,3.80
2022-08-03T16:37:36.515Z,2.75
2022-08-03T16:40:01.039Z,3.17
2022-08-03T16:42:30.960Z,2.92
2022-08-03T16:45:03.508Z,4.50
2022-08-03T16:47:33.442Z,3.97
2022-08-03T16:50:08.978Z,3.58
2022-08-03T16:52:42.974Z,3.05
2022-08-03T16:55:18.416Z,4.97
2022-08-03T16:58:09.150Z,3.47
2022-08-03T17:00:46.418Z,4.80
2022-08-03T17:03:20.403Z,3.35
2022-08-03T17:05:52.321Z,3.28
2022-08-03T17:08:26.857Z,2.88
2022-08-03T17:10:58.882Z,3.38
2022-08-03T17:13:39.989Z,3.50
2022-08-03T17:16:15.325Z,4.00
2022-08-03T17:18:54.222Z,3.75
2022-08-03T17:21:29.373Z,4.93
2022-08-03T17:24:12.371Z,7.63
2022-08-03T17:26:45.773Z,2.17
2022-08-03T17:29:23.189Z,4.03
2022-08-03T17:31:58.102Z,6.80
2022-08-03T17:34:28.074Z,4.05
2022-08-03T17:37:04.200Z,7.93
2022-08-03T17:39:57.591Z,7.60
2022-08-03T17:42:30.720Z,6.45
2022-08-03T17:45:06.734Z,6.55
2022-08-03T17:47:41.800Z,7.10
2022-08-03T17:50:24.210Z,8.35
2022-08-03T17:53:06.699Z,3.70
2022-08-03T17:55:56.383Z,4.60
2022-08-03T17:58:41.610Z,6.78
2022-08-03T18:02:04.278Z,12.00
2022-08-03T18:04:30.175Z,16.02
2022-08-03T18:07:11.389Z,14.95
2022-08-03T18:10:03.252Z,6.22
2022-08-03T18:12:43.394Z,11.55
2022-08-03T18:15:22.095Z,8.02
2022-08-03T18:18:02.100Z,9.82
2022-08-03T18:20:41.755Z,14.48
2022-08-03T18:23:25.089Z,7.47
2022-08-03T18:26:06.904Z,10.50
2022-08-03T18:28:38.540Z,9.45
2022-08-03T18:31:09.565Z,5.43
2022-08-03T18:34:18.951Z,7.05
2022-08-03T18:36:37.752Z,5.13
2022-08-03T18:39:08.930Z,7.90
2022-08-03T18:41:46.325Z,6.68
2022-08-03T18:44:37.426Z,10.45
2022-08-03T18:47:19.713Z,8.95
2022-08-03T18:50:00.434Z,8.77
2022-08-03T18:52:39.114Z,5.68
2022-08-03T18:55:33.776Z,7.43
2022-08-03T18:58:17.804Z,7.82
2022-08-03T19:00:56.793Z,11.07
2022-08-03T19:03:42.705Z,10.35
2022-08-03T19:06:23.991Z,12.70
2022-08-03T19:09:05.393Z,12.27
2022-08-03T19:12:14.151Z,11.80
2022-08-03T19:14:42.522Z,12.90
2022-08-03T19:17:14.317Z,10.82
2022-08-03T19:19:54.127Z,11.73
2022-08-03T19:22:27.316Z,11.23
2022-08-03T19:25:03.254Z,11.23
2022-08-03T19:27:34.514Z,10.00
2022-08-03T19:30:14.241Z,15.02
2022-08-03T19:32:53.324Z,13.60
2022-08-03T19:35:51.428Z,13.65
2022-08-03T19:38:13.662Z,12.55
2022-08-03T19:40:51.178Z,8.65
2022-08-03T19:43:33.133Z,8.98
2022-08-03T19:46:19.968Z,13.73
2022-08-03T19:48:58.432Z,8.77
2022-08-03T19:52:00.654Z,8.90
2022-08-03T19:54:29.831Z,11.57
2022-08-03T19:57:06.222Z,14.05
2022-08-03T19:59:49.688Z,10.77
2022-08-03T20:02:22.159Z,10.75
2022-08-03T20:04:57.849Z,11.98
2022-08-03T20:07:32.918Z,10.65
2022-08-03T20:10:04.437Z,14.93
2022-08-03T20:12:39.345Z,9.82
2022-08-03T20:15:12.169Z,7.90
2022-08-03T20:17:56.642Z,6.50
2022-08-03T20:20:30.689Z,10.95
2022-08-03T20:23:02.350Z,9.25
2022-08-03T20:25:48.847Z,14.95
2022-08-03T20:28:35.697Z,11.57
2022-08-03T20:31:25.194Z,14.65
2022-08-03T20:34:02.133Z,14.18
2022-08-03T20:36:32.130Z,13.43
2022-08-03T20:39:02.361Z,12.27
2022-08-03T20:41:38.086Z,15.90
2022-08-03T20:44:10.715Z,17.00
2022-08-03T20:46:53.153Z,14.02
2022-08-03T20:49:26.723Z,15.35
2022-08-03T20:51:56.775Z,17.95
2022-08-03T20:54:30.703Z,14.38
2022-08-03T20:57:04.286Z,11.63
2022-08-03T20:59:50.520Z,12.80
2022-08-03T21:02:29.926Z,16.25
2022-08-03T21:05:03.319Z,13.30
2022-08-03T21:08:03.991Z,13.02
2022-08-03T21:10:37.786Z,13.27
2022-08-03T21:16:11.531Z,9.55
2022-08-03T21:18:48.578Z,12.23
2022-08-03T21:21:20.485Z,10.48
2022-08-03T21:23:53.394Z,8.85
2022-08-03T21:26:25.704Z,7.72
2022-08-03T21:28:58.029Z,11.25
2022-08-03T21:31:30.658Z,9.68
2022-08-03T21:34:03.075Z,8.70
2022-08-03T21:36:35.714Z,6.80
2022-08-03T21:39:09.507Z,7.78
2022-08-03T21:41:42.425Z,8.80
2022-08-03T21:44:12.529Z,7.53
2022-08-03T21:46:46.988Z,8.32
2022-08-03T21:50:05.806Z,6.90
2022-08-03T21:52:09.711Z,8.95
2022-08-03T21:54:41.136Z,8.73
2022-08-03T21:57:20.835Z,9.43
2022-08-03T21:59:56.622Z,9.85
2022-08-03T22:02:33.413Z,7.05
2022-08-03T22:05:05.043Z,9.23
2022-08-03T22:07:36.666Z,8.48
2022-08-03T22:10:09.318Z,9.82
2022-08-03T22:12:39.592Z,8.90
2022-08-03T22:15:12.351Z,7.85
2022-08-03T22:17:54.528Z,6.25
2022-08-03T22:20:26.764Z,9.13
2022-08-03T22:22:58.341Z,8.00
2022-08-03T22:25:31.628Z,7.78
2022-08-03T22:28:03.576Z,9.35
2022-08-03T22:30:34.416Z,6.90
2022-08-03T22:33:11.134Z,8.00
2022-08-03T22:35:48.082Z,9.13
2022-08-03T22:38:20.059Z,7.45
2022-08-03T22:40:51.589Z,9.50
2022-08-03T22:43:25.979Z,8.45
2022-08-03T22:46:09.220Z,9.07
2022-08-03T22:48:43.962Z,8.80
2022-08-03T22:51:13.972Z,8.82
2022-08-03T22:53:44.173Z,9.93
2022-08-03T22:56:14.682Z,10.65
2022-08-03T22:58:44.873Z,9.88
2022-08-03T23:01:19.647Z,8.48
2022-08-03T23:04:02.366Z,10.13
2022-08-03T23:06:37.445Z,10.35
2022-08-03T23:09:10.264Z,11.25
2022-08-03T23:11:45.784Z,9.48
2022-08-03T23:14:17.904Z,9.57
2022-08-03T23:16:50.873Z,8.82
2022-08-03T23:19:30.238Z,8.52
2022-08-03T23:22:06.043Z,7.78
2022-08-03T23:24:56.322Z,11.10
2022-08-03T23:27:27.049Z,9.95
2022-08-03T23:30:00.378Z,7.47
2022-08-03T23:32:31.567Z,10.38
2022-08-03T23:35:17.880Z,7.65
2022-08-03T23:38:04.297Z,8.35
2022-08-03T23:40:40.035Z,9.43
2022-08-03T23:43:16.699Z,8.32
2022-08-03T23:46:03.863Z,9.13
2022-08-03T23:48:33.947Z,8.68
2022-08-03T23:51:12.647Z,9.43
2022-08-03T23:53:47.334Z,9.02
2022-08-03T23:56:34.076Z,9.00
2022-08-03T23:59:14.573Z,9.73
